Hovedside
METAR-TAF:

METAR-TAF

Lufthavner :

Exeter, England

breddegrad: 50-44N, lengdegrad: 003-25W, høyde over havet: 30 m

Gjeldene værobservasjon

Denne rapporten ble laget for 24 minutter siden, klokken 20:50 UTC
Vind 7 kt fra Vest-sørvest
Temperatur 11°C
Luftfuktighet 87%
Trykk 999 hPa
Sikt 10 km eller mer
Spredte skyer i en høyde av 2000 ft, Bygeskyer.
lette regnbyger,

METAR: EGTE 142050Z 24007KT 9999 -SHRA SCT020CB 11/09 Q0999

Tid: 22:14 (21:14 UTC)

Varsel

Denne rapporten ble laget for 1 time og 17 minutter siden, klokken 19:57 UTC
Varsel gyldig fra 14. klokken 21 UTC til 15. klokken 03 UTC
Vind 9 kt fra Vest-sørvest
Sikt 10 km eller mer
Spredte skyer i en høyde av 2500 ft
Midlertidig
fra 14. klokken 21 UTC til 14. klokken 24 UTC
Sikt: 6000 m
regnbyger, regn,

TAF: EGTE 141957Z 1421/1503 24009KT 9999 SCT025 TEMPO 1421/1424 6000 SHRA RA

Værobservasjoner og værvarsel for over 4000 flyplasser (METAR- og TAF-rapporter).

Tilgjengelige stasjoner er representert av de røde og gule prikkene på kartet.

Hold musepekeren over prikken for å se navnet på stasjonen.

Klikk så for å se værobservasjoner og -varsler.

For å forandre kartet kan du klikke på den grønne knappen med svart kryss for å zoome inn, på den grønne knappen med strek for å zoome ut, eller på de grønne pilene for å se tilstøtende kart.


METAR-TAF: